sensor_id;sensor_type;location;lat;lon;timestamp;temperature;humidity
30893;DHT22;17595;50.884;4.346;2024-02-23T00:02:05;9.00;99.90
30893;DHT22;17595;50.884;4.346;2024-02-23T00:04:31;9.10;99.90
30893;DHT22;17595;50.884;4.346;2024-02-23T00:06:56;9.10;99.90
30893;DHT22;17595;50.884;4.346;2024-02-23T00:09:22;9.10;99.90
30893;DHT22;17595;50.884;4.346;2024-02-23T00:11:47;9.10;99.90
30893;DHT22;17595;50.884;4.346;2024-02-23T00:14:15;9.00;99.90
30893;DHT22;17595;50.884;4.346;2024-02-23T00:16:41;8.90;99.90
30893;DHT22;17595;50.884;4.346;2024-02-23T00:19:09;8.80;99.90
30893;DHT22;17595;50.884;4.346;2024-02-23T00:21:35;8.70;99.90
30893;DHT22;17595;50.884;4.346;2024-02-23T00:24:01;8.70;99.90
30893;DHT22;17595;50.884;4.346;2024-02-23T00:26:26;8.70;99.90
30893;DHT22;17595;50.884;4.346;2024-02-23T00:28:54;8.70;99.90
30893;DHT22;17595;50.884;4.346;2024-02-23T00:31:19;8.80;99.90
30893;DHT22;17595;50.884;4.346;2024-02-23T00:33:45;8.70;99.90
30893;DHT22;17595;50.884;4.346;2024-02-23T00:36:11;8.70;99.90
30893;DHT22;17595;50.884;4.346;2024-02-23T00:38:36;8.60;99.90
30893;DHT22;17595;50.884;4.346;2024-02-23T00:41:02;8.60;99.90
30893;DHT22;17595;50.884;4.346;2024-02-23T00:43:27;8.70;99.90
30893;DHT22;17595;50.884;4.346;2024-02-23T00:45:55;8.80;99.90
30893;DHT22;17595;50.884;4.346;2024-02-23T00:48:20;8.80;99.90
30893;DHT22;17595;50.884;4.346;2024-02-23T00:50:46;8.70;99.90
30893;DHT22;17595;50.884;4.346;2024-02-23T00:53:11;8.60;99.90
30893;DHT22;17595;50.884;4.346;2024-02-23T00:55:37;8.50;99.90
30893;DHT22;17595;50.884;4.346;2024-02-23T00:58:03;8.50;99.90
30893;DHT22;17595;50.884;4.346;2024-02-23T01:00:29;8.50;99.90
30893;DHT22;17595;50.884;4.346;2024-02-23T01:02:54;8.60;99.90
30893;DHT22;17595;50.884;4.346;2024-02-23T01:05:20;8.70;99.90
30893;DHT22;17595;50.884;4.346;2024-02-23T01:07:45;8.70;99.90
30893;DHT22;17595;50.884;4.346;2024-02-23T01:10:11;8.70;99.90
30893;DHT22;17595;50.884;4.346;2024-02-23T01:12:36;8.70;99.90
30893;DHT22;17595;50.884;4.346;2024-02-23T01:15:02;8.80;99.90
30893;DHT22;17595;50.884;4.346;2024-02-23T01:17:28;8.70;99.90
30893;DHT22;17595;50.884;4.346;2024-02-23T01:19:53;8.70;99.90
30893;DHT22;17595;50.884;4.346;2024-02-23T01:22:19;8.60;99.90
30893;DHT22;17595;50.884;4.346;2024-02-23T01:24:44;8.50;99.90
30893;DHT22;17595;50.884;4.346;2024-02-23T01:27:10;8.50;99.90
30893;DHT22;17595;50.884;4.346;2024-02-23T01:29:36;8.50;99.90
30893;DHT22;17595;50.884;4.346;2024-02-23T01:32:01;8.40;99.90
30893;DHT22;17595;50.884;4.346;2024-02-23T01:34:27;8.40;99.90
30893;DHT22;17595;50.884;4.346;2024-02-23T01:36:52;8.40;99.90
30893;DHT22;17595;50.884;4.346;2024-02-23T01:39:18;8.40;99.90
30893;DHT22;17595;50.884;4.346;2024-02-23T01:41:43;8.50;99.90
30893;DHT22;17595;50.884;4.346;2024-02-23T01:44:10;8.50;99.90
30893;DHT22;17595;50.884;4.346;2024-02-23T01:46:35;8.60;99.90
30893;DHT22;17595;50.884;4.346;2024-02-23T01:49:01;8.70;99.90
30893;DHT22;17595;50.884;4.346;2024-02-23T01:51:26;8.70;99.90
30893;DHT22;17595;50.884;4.346;2024-02-23T01:53:52;8.80;99.90
30893;DHT22;17595;50.884;4.346;2024-02-23T01:56:17;8.70;99.90
30893;DHT22;17595;50.884;4.346;2024-02-23T01:58:43;8.70;99.90
30893;DHT22;17595;50.884;4.346;2024-02-23T02:01:10;8.70;99.90
30893;DHT22;17595;50.884;4.346;2024-02-23T02:03:36;8.70;99.90
30893;DHT22;17595;50.884;4.346;2024-02-23T02:06:03;8.80;99.90
30893;DHT22;17595;50.884;4.346;2024-02-23T02:08:29;8.80;99.90
30893;DHT22;17595;50.884;4.346;2024-02-23T02:10:55;8.70;99.90
30893;DHT22;17595;50.884;4.346;2024-02-23T02:13:20;8.70;99.90
30893;DHT22;17595;50.884;4.346;2024-02-23T02:15:46;8.80;99.90
30893;DHT22;17595;50.884;4.346;2024-02-23T02:18:11;8.90;99.90
30893;DHT22;17595;50.884;4.346;2024-02-23T02:20:37;8.80;99.90
30893;DHT22;17595;50.884;4.346;2024-02-23T02:23:05;8.80;99.90
30893;DHT22;17595;50.884;4.346;2024-02-23T02:25:32;8.90;99.90
30893;DHT22;17595;50.884;4.346;2024-02-23T02:27:58;8.80;99.90
30893;DHT22;17595;50.884;4.346;2024-02-23T02:30:23;8.80;99.90
30893;DHT22;17595;50.884;4.346;2024-02-23T02:32:49;8.80;99.90
30893;DHT22;17595;50.884;4.346;2024-02-23T02:35:14;8.60;99.90
30893;DHT22;17595;50.884;4.346;2024-02-23T02:37:40;8.60;99.90
30893;DHT22;17595;50.884;4.346;2024-02-23T02:40:06;8.60;99.90
30893;DHT22;17595;50.884;4.346;2024-02-23T02:42:32;8.50;99.90
30893;DHT22;17595;50.884;4.346;2024-02-23T02:44:58;8.50;99.90
30893;DHT22;17595;50.884;4.346;2024-02-23T02:47:23;8.40;99.90
30893;DHT22;17595;50.884;4.346;2024-02-23T02:49:49;8.50;99.90
30893;DHT22;17595;50.884;4.346;2024-02-23T02:52:15;8.60;99.90
30893;DHT22;17595;50.884;4.346;2024-02-23T02:54:40;8.70;99.90
30893;DHT22;17595;50.884;4.346;2024-02-23T02:57:06;8.80;99.90
30893;DHT22;17595;50.884;4.346;2024-02-23T02:59:34;8.70;99.90
30893;DHT22;17595;50.884;4.346;2024-02-23T03:02:01;8.80;99.90
30893;DHT22;17595;50.884;4.346;2024-02-23T03:04:26;8.80;99.90
30893;DHT22;17595;50.884;4.346;2024-02-23T03:06:52;8.80;99.90
30893;DHT22;17595;50.884;4.346;2024-02-23T03:09:18;8.90;99.90
30893;DHT22;17595;50.884;4.346;2024-02-23T03:11:43;9.00;99.90
30893;DHT22;17595;50.884;4.346;2024-02-23T03:14:09;8.90;99.90
30893;DHT22;17595;50.884;4.346;2024-02-23T03:16:35;8.90;99.90
30893;DHT22;17595;50.884;4.346;2024-02-23T03:19:02;9.00;99.90
30893;DHT22;17595;50.884;4.346;2024-02-23T03:21:28;8.90;99.90
30893;DHT22;17595;50.884;4.346;2024-02-23T03:23:53;8.80;99.90
30893;DHT22;17595;50.884;4.346;2024-02-23T03:26:19;8.80;99.90
30893;DHT22;17595;50.884;4.346;2024-02-23T03:28:44;8.70;99.90
30893;DHT22;17595;50.884;4.346;2024-02-23T03:31:10;8.80;99.90
30893;DHT22;17595;50.884;4.346;2024-02-23T03:33:35;8.80;99.90
30893;DHT22;17595;50.884;4.346;2024-02-23T03:36:02;8.90;99.90
30893;DHT22;17595;50.884;4.346;2024-02-23T03:38:28;8.90;99.90
30893;DHT22;17595;50.884;4.346;2024-02-23T03:40:55;9.00;99.90
30893;DHT22;17595;50.884;4.346;2024-02-23T03:43:20;9.10;99.90
30893;DHT22;17595;50.884;4.346;2024-02-23T03:45:46;9.00;99.90
30893;DHT22;17595;50.884;4.346;2024-02-23T03:48:11;8.90;99.90
30893;DHT22;17595;50.884;4.346;2024-02-23T03:50:37;9.00;99.90
30893;DHT22;17595;50.884;4.346;2024-02-23T03:53:03;9.00;99.90
30893;DHT22;17595;50.884;4.346;2024-02-23T03:55:29;8.90;99.90
30893;DHT22;17595;50.884;4.346;2024-02-23T03:57:54;8.90;99.90
30893;DHT22;17595;50.884;4.346;2024-02-23T04:00:20;9.00;99.90
30893;DHT22;17595;50.884;4.346;2024-02-23T04:02:47;8.90;99.90
30893;DHT22;17595;50.884;4.346;2024-02-23T04:05:12;8.80;99.90
30893;DHT22;17595;50.884;4.346;2024-02-23T04:07:38;8.80;99.90
30893;DHT22;17595;50.884;4.346;2024-02-23T04:10:03;8.80;99.90
30893;DHT22;17595;50.884;4.346;2024-02-23T04:12:30;8.80;99.90
30893;DHT22;17595;50.884;4.346;2024-02-23T04:14:56;8.90;99.90
30893;DHT22;17595;50.884;4.346;2024-02-23T04:17:22;8.90;99.90
30893;DHT22;17595;50.884;4.346;2024-02-23T04:19:47;8.90;99.90
30893;DHT22;17595;50.884;4.346;2024-02-23T04:22:13;8.90;99.90
30893;DHT22;17595;50.884;4.346;2024-02-23T04:24:39;9.00;99.90
30893;DHT22;17595;50.884;4.346;2024-02-23T04:27:05;8.80;99.90
30893;DHT22;17595;50.884;4.346;2024-02-23T04:29:31;8.80;99.90
30893;DHT22;17595;50.884;4.346;2024-02-23T04:32:00;8.80;99.90
30893;DHT22;17595;50.884;4.346;2024-02-23T04:34:26;8.80;99.90
30893;DHT22;17595;50.884;4.346;2024-02-23T04:36:51;8.80;99.90
30893;DHT22;17595;50.884;4.346;2024-02-23T04:39:17;8.70;99.90
30893;DHT22;17595;50.884;4.346;2024-02-23T04:41:42;8.80;99.90
30893;DHT22;17595;50.884;4.346;2024-02-23T04:44:08;8.80;99.90
30893;DHT22;17595;50.884;4.346;2024-02-23T04:46:34;8.70;99.90
30893;DHT22;17595;50.884;4.346;2024-02-23T04:48:59;8.80;99.90
30893;DHT22;17595;50.884;4.346;2024-02-23T04:51:25;8.80;99.90
30893;DHT22;17595;50.884;4.346;2024-02-23T04:53:51;8.80;99.90
30893;DHT22;17595;50.884;4.346;2024-02-23T04:56:16;9.00;99.90
30893;DHT22;17595;50.884;4.346;2024-02-23T04:58:42;9.00;99.90
30893;DHT22;17595;50.884;4.346;2024-02-23T05:01:08;9.10;99.90
30893;DHT22;17595;50.884;4.346;2024-02-23T05:03:34;9.10;99.90
30893;DHT22;17595;50.884;4.346;2024-02-23T05:05:59;9.10;99.90
30893;DHT22;17595;50.884;4.346;2024-02-23T05:08:25;9.10;99.90
30893;DHT22;17595;50.884;4.346;2024-02-23T05:10:52;9.10;99.90
30893;DHT22;17595;50.884;4.346;2024-02-23T05:13:18;9.10;99.90
30893;DHT22;17595;50.884;4.346;2024-02-23T05:15:43;9.20;99.90
30893;DHT22;17595;50.884;4.346;2024-02-23T05:18:09;9.30;99.90
30893;DHT22;17595;50.884;4.346;2024-02-23T05:20:34;9.30;99.90
30893;DHT22;17595;50.884;4.346;2024-02-23T05:23:00;9.40;99.90
30893;DHT22;17595;50.884;4.346;2024-02-23T05:25:26;9.40;99.90
30893;DHT22;17595;50.884;4.346;2024-02-23T05:27:52;9.40;99.90
30893;DHT22;17595;50.884;4.346;2024-02-23T05:30:18;9.40;99.90
30893;DHT22;17595;50.884;4.346;2024-02-23T05:32:43;9.40;99.90
30893;DHT22;17595;50.884;4.346;2024-02-23T05:35:09;9.30;99.90
30893;DHT22;17595;50.884;4.346;2024-02-23T05:37:37;9.40;99.90
30893;DHT22;17595;50.884;4.346;2024-02-23T05:40:03;9.20;99.90
30893;DHT22;17595;50.884;4.346;2024-02-23T05:42:32;9.10;99.90
30893;DHT22;17595;50.884;4.346;2024-02-23T05:44:57;9.10;99.90
30893;DHT22;17595;50.884;4.346;2024-02-23T05:47:23;9.10;99.90
30893;DHT22;17595;50.884;4.346;2024-02-23T05:49:49;9.10;99.90
30893;DHT22;17595;50.884;4.346;2024-02-23T05:52:15;9.20;99.90
30893;DHT22;17595;50.884;4.346;2024-02-23T05:54:41;9.20;99.90
30893;DHT22;17595;50.884;4.346;2024-02-23T05:57:06;9.00;99.90
30893;DHT22;17595;50.884;4.346;2024-02-23T05:59:32;9.00;99.90
30893;DHT22;17595;50.884;4.346;2024-02-23T06:01:57;8.90;99.90
30893;DHT22;17595;50.884;4.346;2024-02-23T06:04:23;9.10;99.90
30893;DHT22;17595;50.884;4.346;2024-02-23T06:06:49;9.10;99.90
30893;DHT22;17595;50.884;4.346;2024-02-23T06:09:14;9.00;99.90
30893;DHT22;17595;50.884;4.346;2024-02-23T06:11:41;9.10;99.90
30893;DHT22;17595;50.884;4.346;2024-02-23T06:14:07;9.20;99.90
30893;DHT22;17595;50.884;4.346;2024-02-23T06:16:33;9.20;99.90
30893;DHT22;17595;50.884;4.346;2024-02-23T06:18:59;9.20;99.90
30893;DHT22;17595;50.884;4.346;2024-02-23T06:21:24;9.20;99.90
30893;DHT22;17595;50.884;4.346;2024-02-23T06:23:50;9.20;99.90
30893;DHT22;17595;50.884;4.346;2024-02-23T06:26:15;9.10;99.90
30893;DHT22;17595;50.884;4.346;2024-02-23T06:28:41;9.10;99.90
30893;DHT22;17595;50.884;4.346;2024-02-23T06:31:07;9.10;99.90
30893;DHT22;17595;50.884;4.346;2024-02-23T06:33:33;9.10;99.90
30893;DHT22;17595;50.884;4.346;2024-02-23T06:35:58;9.00;99.90
30893;DHT22;17595;50.884;4.346;2024-02-23T06:38:24;8.90;99.90
30893;DHT22;17595;50.884;4.346;2024-02-23T06:40:50;9.00;99.90
30893;DHT22;17595;50.884;4.346;2024-02-23T06:43:16;9.10;99.90
30893;DHT22;17595;50.884;4.346;2024-02-23T06:45:42;9.00;99.90
30893;DHT22;17595;50.884;4.346;2024-02-23T06:48:07;9.10;99.90
30893;DHT22;17595;50.884;4.346;2024-02-23T06:50:33;9.20;99.90
30893;DHT22;17595;50.884;4.346;2024-02-23T06:52:59;9.30;99.90
30893;DHT22;17595;50.884;4.346;2024-02-23T06:55:24;9.30;99.90
30893;DHT22;17595;50.884;4.346;2024-02-23T06:57:50;9.40;99.90
30893;DHT22;17595;50.884;4.346;2024-02-23T07:00:15;9.30;99.90
30893;DHT22;17595;50.884;4.346;2024-02-23T07:02:41;9.20;99.90
30893;DHT22;17595;50.884;4.346;2024-02-23T07:05:06;9.30;99.90
30893;DHT22;17595;50.884;4.346;2024-02-23T07:07:32;9.40;99.90
30893;DHT22;17595;50.884;4.346;2024-02-23T07:09:59;9.50;99.90
30893;DHT22;17595;50.884;4.346;2024-02-23T07:12:24;9.60;99.90
30893;DHT22;17595;50.884;4.346;2024-02-23T07:14:52;9.60;99.90
30893;DHT22;17595;50.884;4.346;2024-02-23T07:17:17;9.60;99.90
30893;DHT22;17595;50.884;4.346;2024-02-23T07:19:44;9.50;99.90
30893;DHT22;17595;50.884;4.346;2024-02-23T07:22:09;9.60;99.90
30893;DHT22;17595;50.884;4.346;2024-02-23T07:24:39;9.70;99.90
30893;DHT22;17595;50.884;4.346;2024-02-23T07:27:05;9.70;99.90
30893;DHT22;17595;50.884;4.346;2024-02-23T07:29:30;9.60;99.90
30893;DHT22;17595;50.884;4.346;2024-02-23T07:31:56;9.70;99.90
30893;DHT22;17595;50.884;4.346;2024-02-23T07:34:21;9.90;99.90
30893;DHT22;17595;50.884;4.346;2024-02-23T07:36:47;9.80;99.90
30893;DHT22;17595;50.884;4.346;2024-02-23T07:39:13;9.70;99.90
30893;DHT22;17595;50.884;4.346;2024-02-23T07:41:38;9.70;99.90
30893;DHT22;17595;50.884;4.346;2024-02-23T07:44:04;9.90;99.90
30893;DHT22;17595;50.884;4.346;2024-02-23T07:46:29;10.00;99.90
30893;DHT22;17595;50.884;4.346;2024-02-23T07:48:55;9.90;99.90
30893;DHT22;17595;50.884;4.346;2024-02-23T07:51:21;9.90;99.90
30893;DHT22;17595;50.884;4.346;2024-02-23T07:53:46;10.00;99.90
30893;DHT22;17595;50.884;4.346;2024-02-23T07:56:12;10.10;99.90
30893;DHT22;17595;50.884;4.346;2024-02-23T07:58:38;10.00;99.90
30893;DHT22;17595;50.884;4.346;2024-02-23T08:01:03;9.90;99.90
30893;DHT22;17595;50.884;4.346;2024-02-23T08:03:29;9.90;99.90
30893;DHT22;17595;50.884;4.346;2024-02-23T08:05:55;9.90;99.90
30893;DHT22;17595;50.884;4.346;2024-02-23T08:08:20;10.00;99.90
30893;DHT22;17595;50.884;4.346;2024-02-23T08:10:47;9.90;99.90
30893;DHT22;17595;50.884;4.346;2024-02-23T08:13:13;9.90;99.90
30893;DHT22;17595;50.884;4.346;2024-02-23T08:15:38;9.90;99.90
30893;DHT22;17595;50.884;4.346;2024-02-23T08:18:04;9.80;99.90
30893;DHT22;17595;50.884;4.346;2024-02-23T08:20:30;9.80;99.90
30893;DHT22;17595;50.884;4.346;2024-02-23T08:22:55;9.80;99.90
30893;DHT22;17595;50.884;4.346;2024-02-23T08:25:21;9.80;99.90
30893;DHT22;17595;50.884;4.346;2024-02-23T08:27:47;9.70;99.90
30893;DHT22;17595;50.884;4.346;2024-02-23T08:30:13;9.80;99.90
30893;DHT22;17595;50.884;4.346;2024-02-23T08:32:39;9.60;99.90
30893;DHT22;17595;50.884;4.346;2024-02-23T08:35:05;9.50;99.90
30893;DHT22;17595;50.884;4.346;2024-02-23T08:37:30;9.40;99.90
30893;DHT22;17595;50.884;4.346;2024-02-23T08:39:56;9.50;99.90
30893;DHT22;17595;50.884;4.346;2024-02-23T08:42:22;9.50;99.90
30893;DHT22;17595;50.884;4.346;2024-02-23T08:44:47;9.50;99.90
30893;DHT22;17595;50.884;4.346;2024-02-23T08:47:13;9.60;99.90
30893;DHT22;17595;50.884;4.346;2024-02-23T08:49:38;9.60;99.90
30893;DHT22;17595;50.884;4.346;2024-02-23T08:52:04;9.50;99.90
30893;DHT22;17595;50.884;4.346;2024-02-23T08:54:30;9.50;99.90
30893;DHT22;17595;50.884;4.346;2024-02-23T08:56:56;9.40;99.90
30893;DHT22;17595;50.884;4.346;2024-02-23T08:59:21;9.30;99.90
30893;DHT22;17595;50.884;4.346;2024-02-23T09:01:46;9.40;99.90
30893;DHT22;17595;50.884;4.346;2024-02-23T09:04:15;9.30;99.90
30893;DHT22;17595;50.884;4.346;2024-02-23T09:06:40;9.40;99.90
30893;DHT22;17595;50.884;4.346;2024-02-23T09:09:06;9.40;99.90
30893;DHT22;17595;50.884;4.346;2024-02-23T09:11:31;9.40;99.90
30893;DHT22;17595;50.884;4.346;2024-02-23T09:13:57;9.50;99.90
30893;DHT22;17595;50.884;4.346;2024-02-23T09:16:22;9.30;99.90
30893;DHT22;17595;50.884;4.346;2024-02-23T09:18:50;9.40;99.90
30893;DHT22;17595;50.884;4.346;2024-02-23T09:21:15;9.60;99.90
30893;DHT22;17595;50.884;4.346;2024-02-23T09:23:41;9.80;99.90
30893;DHT22;17595;50.884;4.346;2024-02-23T09:26:09;9.70;99.90
30893;DHT22;17595;50.884;4.346;2024-02-23T09:28:38;9.90;99.90
30893;DHT22;17595;50.884;4.346;2024-02-23T09:31:03;10.10;99.90
30893;DHT22;17595;50.884;4.346;2024-02-23T09:33:30;10.20;99.90
30893;DHT22;17595;50.884;4.346;2024-02-23T09:35:56;10.20;99.90
30893;DHT22;17595;50.884;4.346;2024-02-23T09:38:22;10.10;99.90
30893;DHT22;17595;50.884;4.346;2024-02-23T09:40:50;10.20;99.90
30893;DHT22;17595;50.884;4.346;2024-02-23T09:43:16;10.20;99.90
30893;DHT22;17595;50.884;4.346;2024-02-23T09:45:41;10.40;99.90
30893;DHT22;17595;50.884;4.346;2024-02-23T09:48:07;10.50;99.90
30893;DHT22;17595;50.884;4.346;2024-02-23T09:50:33;10.50;99.90
30893;DHT22;17595;50.884;4.346;2024-02-23T09:53:00;10.50;99.90
30893;DHT22;17595;50.884;4.346;2024-02-23T09:55:26;10.50;99.90
30893;DHT22;17595;50.884;4.346;2024-02-23T09:57:54;10.70;99.90
30893;DHT22;17595;50.884;4.346;2024-02-23T10:00:22;10.90;99.90
30893;DHT22;17595;50.884;4.346;2024-02-23T10:02:48;10.90;99.90
30893;DHT22;17595;50.884;4.346;2024-02-23T10:05:14;11.00;99.90
30893;DHT22;17595;50.884;4.346;2024-02-23T10:07:42;11.20;99.90
30893;DHT22;17595;50.884;4.346;2024-02-23T10:10:09;11.30;99.90
30893;DHT22;17595;50.884;4.346;2024-02-23T10:12:36;11.50;99.90
30893;DHT22;17595;50.884;4.346;2024-02-23T10:15:02;11.60;99.90
30893;DHT22;17595;50.884;4.346;2024-02-23T10:17:30;11.40;99.90
30893;DHT22;17595;50.884;4.346;2024-02-23T10:19:55;11.20;99.90
30893;DHT22;17595;50.884;4.346;2024-02-23T10:22:22;11.30;99.90
30893;DHT22;17595;50.884;4.346;2024-02-23T10:24:50;11.20;99.90
30893;DHT22;17595;50.884;4.346;2024-02-23T10:27:16;11.30;99.90
30893;DHT22;17595;50.884;4.346;2024-02-23T10:29:42;11.30;99.90
30893;DHT22;17595;50.884;4.346;2024-02-23T10:32:08;11.50;99.90
30893;DHT22;17595;50.884;4.346;2024-02-23T10:34:38;11.80;99.90
30893;DHT22;17595;50.884;4.346;2024-02-23T10:37:04;11.90;99.90
30893;DHT22;17595;50.884;4.346;2024-02-23T10:39:31;12.00;99.90
30893;DHT22;17595;50.884;4.346;2024-02-23T10:42:00;11.50;99.90
30893;DHT22;17595;50.884;4.346;2024-02-23T10:44:28;11.40;99.90
30893;DHT22;17595;50.884;4.346;2024-02-23T10:46:53;11.40;99.90
30893;DHT22;17595;50.884;4.346;2024-02-23T10:49:19;11.30;99.90
30893;DHT22;17595;50.884;4.346;2024-02-23T10:51:48;11.20;99.90
30893;DHT22;17595;50.884;4.346;2024-02-23T10:54:14;11.40;99.90
30893;DHT22;17595;50.884;4.346;2024-02-23T10:56:41;11.50;99.90
30893;DHT22;17595;50.884;4.346;2024-02-23T10:59:07;11.50;99.90
30893;DHT22;17595;50.884;4.346;2024-02-23T11:01:33;11.70;99.90
30893;DHT22;17595;50.884;4.346;2024-02-23T11:04:00;11.80;99.90
30893;DHT22;17595;50.884;4.346;2024-02-23T11:06:28;11.70;99.90
30893;DHT22;17595;50.884;4.346;2024-02-23T11:09:04;11.70;99.90
30893;DHT22;17595;50.884;4.346;2024-02-23T11:11:29;11.70;99.90
30893;DHT22;17595;50.884;4.346;2024-02-23T11:13:57;11.70;99.90
30893;DHT22;17595;50.884;4.346;2024-02-23T11:16:22;11.60;99.90
30893;DHT22;17595;50.884;4.346;2024-02-23T11:19:00;11.60;99.90
30893;DHT22;17595;50.884;4.346;2024-02-23T11:21:33;11.60;99.90
30893;DHT22;17595;50.884;4.346;2024-02-23T11:24:01;11.70;99.90
30893;DHT22;17595;50.884;4.346;2024-02-23T11:26:27;11.70;99.90
30893;DHT22;17595;50.884;4.346;2024-02-23T11:28:53;11.70;99.90
30893;DHT22;17595;50.884;4.346;2024-02-23T11:31:23;11.90;99.90
30893;DHT22;17595;50.884;4.346;2024-02-23T11:33:52;11.90;99.90
30893;DHT22;17595;50.884;4.346;2024-02-23T11:36:27;11.90;99.90
30893;DHT22;17595;50.884;4.346;2024-02-23T11:38:53;11.70;99.90
30893;DHT22;17595;50.884;4.346;2024-02-23T11:41:22;11.80;99.90
30893;DHT22;17595;50.884;4.346;2024-02-23T11:43:51;11.70;99.90
30893;DHT22;17595;50.884;4.346;2024-02-23T11:46:17;11.80;99.90
30893;DHT22;17595;50.884;4.346;2024-02-23T11:48:43;11.80;99.90
30893;DHT22;17595;50.884;4.346;2024-02-23T11:51:09;11.60;99.90
30893;DHT22;17595;50.884;4.346;2024-02-23T11:53:36;11.40;99.90
30893;DHT22;17595;50.884;4.346;2024-02-23T11:56:02;11.30;99.90
30893;DHT22;17595;50.884;4.346;2024-02-23T11:58:28;11.30;99.90
30893;DHT22;17595;50.884;4.346;2024-02-23T12:00:54;11.10;99.90
30893;DHT22;17595;50.884;4.346;2024-02-23T12:03:19;11.30;99.90
30893;DHT22;17595;50.884;4.346;2024-02-23T12:05:48;11.50;99.90
30893;DHT22;17595;50.884;4.346;2024-02-23T12:08:14;11.40;99.90
30893;DHT22;17595;50.884;4.346;2024-02-23T12:10:41;11.60;99.90
30893;DHT22;17595;50.884;4.346;2024-02-23T12:13:06;11.80;99.90
30893;DHT22;17595;50.884;4.346;2024-02-23T12:15:33;11.90;99.90
30893;DHT22;17595;50.884;4.346;2024-02-23T12:17:58;12.20;99.90
30893;DHT22;17595;50.884;4.346;2024-02-23T12:20:25;12.10;99.90
30893;DHT22;17595;50.884;4.346;2024-02-23T12:22:54;12.30;99.90
30893;DHT22;17595;50.884;4.346;2024-02-23T12:25:19;12.30;99.90
30893;DHT22;17595;50.884;4.346;2024-02-23T12:27:45;12.30;99.90
30893;DHT22;17595;50.884;4.346;2024-02-23T12:30:14;12.40;99.90
30893;DHT22;17595;50.884;4.346;2024-02-23T12:32:40;12.40;99.90
30893;DHT22;17595;50.884;4.346;2024-02-23T12:35:06;12.20;99.90
30893;DHT22;17595;50.884;4.346;2024-02-23T12:37:34;12.20;99.90
30893;DHT22;17595;50.884;4.346;2024-02-23T12:40:00;12.20;99.90
30893;DHT22;17595;50.884;4.346;2024-02-23T12:42:25;12.20;99.90
30893;DHT22;17595;50.884;4.346;2024-02-23T12:44:51;12.40;99.90
30893;DHT22;17595;50.884;4.346;2024-02-23T12:47:17;12.60;99.90
30893;DHT22;17595;50.884;4.346;2024-02-23T12:49:42;12.60;99.90
30893;DHT22;17595;50.884;4.346;2024-02-23T12:52:08;12.60;99.90
30893;DHT22;17595;50.884;4.346;2024-02-23T12:54:33;12.60;99.90
30893;DHT22;17595;50.884;4.346;2024-02-23T12:56:59;12.70;99.90
30893;DHT22;17595;50.884;4.346;2024-02-23T12:59:25;12.50;99.90
30893;DHT22;17595;50.884;4.346;2024-02-23T13:01:51;12.60;99.90
30893;DHT22;17595;50.884;4.346;2024-02-23T13:04:16;12.60;99.90
30893;DHT22;17595;50.884;4.346;2024-02-23T13:06:42;12.70;99.90
30893;DHT22;17595;50.884;4.346;2024-02-23T13:09:08;12.70;99.90
30893;DHT22;17595;50.884;4.346;2024-02-23T13:11:34;12.80;99.90
30893;DHT22;17595;50.884;4.346;2024-02-23T13:14:00;12.70;99.90
30893;DHT22;17595;50.884;4.346;2024-02-23T13:16:32;12.70;99.90
30893;DHT22;17595;50.884;4.346;2024-02-23T13:18:57;12.60;99.90
30893;DHT22;17595;50.884;4.346;2024-02-23T13:21:23;12.80;99.90
30893;DHT22;17595;50.884;4.346;2024-02-23T13:23:49;12.90;99.90
30893;DHT22;17595;50.884;4.346;2024-02-23T13:26:15;12.80;99.90
30893;DHT22;17595;50.884;4.346;2024-02-23T13:28:43;12.90;99.90
30893;DHT22;17595;50.884;4.346;2024-02-23T13:31:09;12.90;99.90
30893;DHT22;17595;50.884;4.346;2024-02-23T13:33:35;12.90;99.90
30893;DHT22;17595;50.884;4.346;2024-02-23T13:36:01;12.80;99.90
30893;DHT22;17595;50.884;4.346;2024-02-23T13:38:26;12.90;99.90
30893;DHT22;17595;50.884;4.346;2024-02-23T13:40:52;12.90;99.90
30893;DHT22;17595;50.884;4.346;2024-02-23T13:43:17;12.90;99.90
30893;DHT22;17595;50.884;4.346;2024-02-23T13:45:49;13.10;99.90
30893;DHT22;17595;50.884;4.346;2024-02-23T13:48:16;13.10;99.90
30893;DHT22;17595;50.884;4.346;2024-02-23T13:50:44;13.10;99.90
30893;DHT22;17595;50.884;4.346;2024-02-23T13:53:10;13.10;99.90
30893;DHT22;17595;50.884;4.346;2024-02-23T13:55:36;13.00;99.90
30893;DHT22;17595;50.884;4.346;2024-02-23T13:58:01;13.10;99.90
30893;DHT22;17595;50.884;4.346;2024-02-23T14:00:27;13.10;99.90
30893;DHT22;17595;50.884;4.346;2024-02-23T14:02:53;12.90;99.90
30893;DHT22;17595;50.884;4.346;2024-02-23T14:05:18;13.00;99.90
30893;DHT22;17595;50.884;4.346;2024-02-23T14:07:47;12.70;99.90
30893;DHT22;17595;50.884;4.346;2024-02-23T14:10:12;12.70;99.90
30893;DHT22;17595;50.884;4.346;2024-02-23T14:12:39;12.70;99.90
30893;DHT22;17595;50.884;4.346;2024-02-23T14:15:04;12.60;99.90
30893;DHT22;17595;50.884;4.346;2024-02-23T14:17:30;12.50;99.90
30893;DHT22;17595;50.884;4.346;2024-02-23T14:19:56;12.40;99.90
30893;DHT22;17595;50.884;4.346;2024-02-23T14:22:21;12.50;99.90
30893;DHT22;17595;50.884;4.346;2024-02-23T14:24:47;12.60;99.90
30893;DHT22;17595;50.884;4.346;2024-02-23T14:27:12;12.90;99.90
30893;DHT22;17595;50.884;4.346;2024-02-23T14:29:38;13.00;99.90
30893;DHT22;17595;50.884;4.346;2024-02-23T14:32:04;13.20;99.90
30893;DHT22;17595;50.884;4.346;2024-02-23T14:34:30;13.30;99.90
30893;DHT22;17595;50.884;4.346;2024-02-23T14:36:55;13.00;99.90
30893;DHT22;17595;50.884;4.346;2024-02-23T14:39:22;12.90;99.90
30893;DHT22;17595;50.884;4.346;2024-02-23T14:41:47;12.80;99.90
30893;DHT22;17595;50.884;4.346;2024-02-23T14:44:13;12.90;99.90
30893;DHT22;17595;50.884;4.346;2024-02-23T14:46:39;13.20;99.90
30893;DHT22;17595;50.884;4.346;2024-02-23T14:49:06;13.20;99.90
30893;DHT22;17595;50.884;4.346;2024-02-23T14:51:31;13.20;99.90
30893;DHT22;17595;50.884;4.346;2024-02-23T14:53:57;13.20;99.90
30893;DHT22;17595;50.884;4.346;2024-02-23T14:56:22;13.20;99.90
30893;DHT22;17595;50.884;4.346;2024-02-23T14:58:48;12.80;99.90
30893;DHT22;17595;50.884;4.346;2024-02-23T15:01:14;12.70;99.90
30893;DHT22;17595;50.884;4.346;2024-02-23T15:03:39;12.90;99.90
30893;DHT22;17595;50.884;4.346;2024-02-23T15:06:05;12.90;99.90
30893;DHT22;17595;50.884;4.346;2024-02-23T15:08:30;13.10;99.90
30893;DHT22;17595;50.884;4.346;2024-02-23T15:10:56;13.20;99.90
30893;DHT22;17595;50.884;4.346;2024-02-23T15:13:22;13.10;99.90
30893;DHT22;17595;50.884;4.346;2024-02-23T15:15:47;13.20;99.90
30893;DHT22;17595;50.884;4.346;2024-02-23T15:18:13;13.10;99.90
30893;DHT22;17595;50.884;4.346;2024-02-23T15:20:38;13.10;99.90
30893;DHT22;17595;50.884;4.346;2024-02-23T15:23:04;12.80;99.90
30893;DHT22;17595;50.884;4.346;2024-02-23T15:25:30;12.60;99.90
30893;DHT22;17595;50.884;4.346;2024-02-23T15:27:55;12.70;99.90
30893;DHT22;17595;50.884;4.346;2024-02-23T15:30:24;12.70;99.90
30893;DHT22;17595;50.884;4.346;2024-02-23T15:32:50;12.90;99.90